Time;durP1;ratioP1;P1;durP2;ratioP2;P2;SDS_P1;SDS_P2;PMS_P1;PMS_P2;Temp;Humidity;BMP_temperature;BMP_pressure;BME280_temperature;BME280_humidity;BME280_pressure;Samples;Min_cycle;Max_cycle;Signal;HPM_P1;HPM_P2
2024/01/19 05:02:54;;;;;;;1.43;1.40;;;-4.90;97.30;;;;;;4976761;28;20539;-64
2024/01/19 05:05:19;;;;;;;1.20;1.10;;;-4.90;97.30;;;;;;4975104;28;20430;-64
2024/01/19 05:07:45;;;;;;;2.23;2.03;;;-4.90;97.30;;;;;;4978867;28;20185;-64
2024/01/19 05:10:10;;;;;;;1.57;1.50;;;-4.90;97.30;;;;;;4982671;28;20194;-64
2024/01/19 05:12:36;;;;;;;3.10;2.10;;;-4.90;97.30;;;;;;4992958;28;20647;-63
2024/01/19 05:15:02;;;;;;;1.00;0.90;;;-4.90;97.30;;;;;;4995266;28;20190;-63
2024/01/19 05:17:27;;;;;;;1.20;1.10;;;-4.90;97.30;;;;;;4982198;28;20339;-63
2024/01/19 05:19:53;;;;;;;2.60;1.50;;;-4.90;97.30;;;;;;4983552;28;20519;-63
2024/01/19 05:22:19;;;;;;;13.10;3.10;;;-4.90;97.30;;;;;;4981806;28;20202;-63
2024/01/19 05:24:45;;;;;;;1.30;1.20;;;-4.80;97.30;;;;;;4975902;28;20430;-64
2024/01/19 05:27:11;;;;;;;4.10;1.80;;;-4.80;97.30;;;;;;4980497;28;20429;-65
2024/01/19 05:29:37;;;;;;;1.70;1.57;;;-4.70;97.30;;;;;;4980651;28;20185;-64
2024/01/19 05:32:03;;;;;;;4.27;4.00;;;-4.70;97.30;;;;;;4973589;28;20948;-65
2024/01/19 05:34:28;;;;;;;4.10;3.10;;;-4.70;97.30;;;;;;4996354;28;20226;-64
2024/01/19 05:36:54;;;;;;;3.03;1.90;;;-4.70;97.30;;;;;;4986091;28;21063;-64
2024/01/19 05:39:20;;;;;;;2.67;2.47;;;-4.70;97.30;;;;;;5001213;28;20201;-63
2024/01/19 05:41:45;;;;;;;2.67;2.50;;;-4.70;97.30;;;;;;4966950;28;20202;-64
2024/01/19 05:44:11;;;;;;;1.43;1.40;;;-4.70;97.30;;;;;;4978271;28;20186;-64
2024/01/19 05:46:37;;;;;;;4.60;2.40;;;-4.70;97.30;;;;;;4999063;28;20185;-64
2024/01/19 05:49:03;;;;;;;3.43;3.23;;;-4.70;97.30;;;;;;4969342;28;20425;-64
2024/01/19 05:51:28;;;;;;;3.80;1.47;;;-4.80;97.30;;;;;;4974768;28;21089;-64
2024/01/19 05:53:54;;;;;;;1.43;1.33;;;-4.80;97.30;;;;;;4984690;28;20181;-64
2024/01/19 05:56:19;;;;;;;5.10;3.00;;;-4.80;97.30;;;;;;4992897;28;20194;-64
2024/01/19 05:58:45;;;;;;;2.93;2.73;;;-4.80;97.30;;;;;;4987500;28;20193;-64
2024/01/19 06:01:10;;;;;;;3.27;3.07;;;-4.70;97.30;;;;;;4985321;28;20778;-64
2024/01/19 06:03:37;;;;;;;1.53;1.30;;;-4.70;97.30;;;;;;5011028;28;20207;-64
2024/01/19 06:06:03;;;;;;;2.73;2.53;;;-4.70;97.30;;;;;;4990039;28;20308;-64
2024/01/19 06:08:29;;;;;;;1.80;1.67;;;-4.70;97.30;;;;;;5009260;28;20529;-64
2024/01/19 06:10:55;;;;;;;1.30;1.20;;;-4.70;97.30;;;;;;5016400;28;20287;-65
2024/01/19 06:13:21;;;;;;;3.80;1.77;;;-4.60;97.30;;;;;;5017680;28;21093;-64
2024/01/19 06:15:46;;;;;;;5.10;4.80;;;-4.60;97.30;;;;;;5018041;28;20470;-65
2024/01/19 06:18:12;;;;;;;1.73;1.63;;;-4.60;97.30;;;;;;5022504;28;20181;-64
2024/01/19 06:20:41;;;;;;;1.40;1.30;;;-4.70;97.30;;;;;;4994861;28;20728;-64
2024/01/19 06:23:10;;;;;;;1.33;1.23;;;-4.70;97.30;;;;;;5017291;28;20240;-64
2024/01/19 06:25:37;;;;;;;1.80;1.73;;;-4.70;97.30;;;;;;5022859;28;20428;-64
2024/01/19 06:28:03;;;;;;;1.60;1.50;;;-4.60;97.30;;;;;;5018262;28;20475;-64
2024/01/19 06:30:29;;;;;;;1.47;1.30;;;-4.70;97.30;;;;;;5005716;28;20548;-64
2024/01/19 06:32:55;;;;;;;13.30;2.50;;;-4.70;97.30;;;;;;5015444;28;20430;-64
2024/01/19 06:35:21;;;;;;;3.60;3.40;;;-4.70;97.30;;;;;;5021055;28;20517;-65
2024/01/19 06:37:46;;;;;;;2.50;1.60;;;-4.70;97.30;;;;;;5017961;28;20460;-65
2024/01/19 06:40:14;;;;;;;3.53;2.93;;;-4.70;97.30;;;;;;5023628;28;20645;-65
2024/01/19 06:42:40;;;;;;;5.40;2.83;;;-4.70;97.30;;;;;;5009188;28;20184;-65
2024/01/19 06:45:06;;;;;;;1.97;1.90;;;-4.70;97.30;;;;;;4995758;28;20527;-65
2024/01/19 06:47:32;;;;;;;1.83;1.73;;;-4.70;97.30;;;;;;5006923;28;20808;-65
2024/01/19 06:49:57;;;;;;;1.20;1.10;;;-4.70;97.30;;;;;;5019972;28;20430;-65
2024/01/19 06:52:23;;;;;;;3.43;2.13;;;-4.60;97.30;;;;;;5012622;28;20276;-65
2024/01/19 06:54:48;;;;;;;2.50;1.40;;;-4.60;97.30;;;;;;4993824;28;20185;-65
2024/01/19 06:57:14;;;;;;;3.73;3.53;;;-4.60;97.30;;;;;;5001885;28;20211;-65
2024/01/19 06:59:39;;;;;;;1.73;1.63;;;-4.60;97.30;;;;;;4998321;28;20177;-65
2024/01/19 07:02:05;;;;;;;2.87;2.67;;;-4.60;97.30;;;;;;5002916;28;20778;-65
2024/01/19 07:04:30;;;;;;;5.30;2.97;;;-4.50;97.30;;;;;;5000100;28;20260;-65
2024/01/19 07:06:56;;;;;;;1.40;1.30;;;-4.50;97.30;;;;;;5005772;28;20188;-65
2024/01/19 07:09:21;;;;;;;1.27;1.17;;;-4.50;97.30;;;;;;5007779;28;20185;-65
2024/01/19 07:11:47;;;;;;;3.00;2.80;;;-4.50;97.30;;;;;;5006661;28;20432;-65
2024/01/19 07:14:13;;;;;;;3.97;3.30;;;-4.50;97.30;;;;;;5004653;28;20185;-65
2024/01/19 07:16:43;;;;;;;2.17;2.00;;;-4.50;97.30;;;;;;5004159;28;20408;-65
2024/01/19 07:19:09;;;;;;;1.50;1.40;;;-4.50;97.30;;;;;;5008528;28;20217;-65
2024/01/19 07:21:41;;;;;;;1.77;1.67;;;-4.50;97.30;;;;;;5004574;28;20577;-65
2024/01/19 07:24:08;;;;;;;1.57;1.47;;;-4.40;97.30;;;;;;5007131;28;20471;-65
2024/01/19 07:26:34;;;;;;;1.00;0.90;;;-4.40;97.30;;;;;;5005621;28;20423;-65
2024/01/19 07:29:04;;;;;;;1.10;1.00;;;-4.40;97.30;;;;;;5009723;28;20439;-65
2024/01/19 07:31:30;;;;;;;3.30;3.10;;;-4.40;97.30;;;;;;5007493;28;20484;-65
2024/01/19 07:33:56;;;;;;;1.10;1.00;;;-4.30;97.30;;;;;;5007226;28;20838;-65
2024/01/19 07:36:21;;;;;;;1.00;0.90;;;-4.20;97.30;;;;;;5008511;28;20452;-66
2024/01/19 07:38:47;;;;;;;1.60;1.27;;;-4.20;97.30;;;;;;5009711;28;20188;-65
2024/01/19 07:41:12;;;;;;;1.00;0.90;;;-4.20;97.30;;;;;;5008153;28;20307;-65
2024/01/19 07:43:38;;;;;;;1.47;1.40;;;-4.20;97.30;;;;;;5010616;28;20660;-65
2024/01/19 07:46:03;;;;;;;1.20;1.10;;;-4.10;97.30;;;;;;5009388;28;20242;-66
2024/01/19 07:48:29;;;;;;;5.40;2.23;;;-4.10;97.30;;;;;;5008554;28;20425;-66
2024/01/19 07:50:54;;;;;;;1.30;1.20;;;-4.00;97.30;;;;;;5002287;28;20216;-66
2024/01/19 07:53:20;;;;;;;1.23;1.13;;;-3.90;97.30;;;;;;5008740;28;20192;-66
2024/01/19 07:55:45;;;;;;;10.70;4.60;;;-3.90;97.30;;;;;;5010289;28;20205;-66
2024/01/19 07:58:11;;;;;;;1.00;0.90;;;-3.80;97.30;;;;;;5007703;28;20496;-66
2024/01/19 08:00:36;;;;;;;1.70;1.23;;;-3.80;97.30;;;;;;5003956;28;20197;-66
2024/01/19 08:03:02;;;;;;;2.53;1.90;;;-3.80;97.30;;;;;;4991662;28;20271;-66
2024/01/19 08:05:28;;;;;;;1.87;1.13;;;-3.70;97.30;;;;;;5009278;28;20687;-66
2024/01/19 08:07:53;;;;;;;1.40;1.30;;;-3.60;97.30;;;;;;4985744;28;20639;-67
2024/01/19 08:10:20;;;;;;;3.90;1.47;;;-3.50;97.30;;;;;;4997524;28;20185;-67
2024/01/19 08:12:45;;;;;;;1.47;1.33;;;-3.50;97.30;;;;;;5003215;28;20692;-67
2024/01/19 08:15:11;;;;;;;1.10;1.00;;;-3.40;97.30;;;;;;4991089;28;20448;-67
2024/01/19 08:17:36;;;;;;;1.60;1.50;;;-3.50;97.30;;;;;;4991784;28;20615;-67
2024/01/19 08:20:02;;;;;;;3.97;1.87;;;-3.40;97.30;;;;;;4990984;28;20177;-67
2024/01/19 08:22:28;;;;;;;6.83;1.37;;;-3.40;97.30;;;;;;5008958;28;20208;-67
2024/01/19 08:24:53;;;;;;;1.57;1.47;;;-3.40;97.30;;;;;;5006875;28;20421;-67
2024/01/19 08:27:19;;;;;;;1.10;1.00;;;-3.40;97.30;;;;;;4987215;28;20182;-67
2024/01/19 08:29:47;;;;;;;1.27;1.17;;;-3.30;97.30;;;;;;4992843;28;20219;-67
2024/01/19 08:32:13;;;;;;;2.07;1.93;;;-3.10;97.30;;;;;;4997752;28;20573;-67
2024/01/19 08:34:39;;;;;;;4.43;2.23;;;-3.00;97.30;;;;;;4990798;28;20518;-68
2024/01/19 08:37:04;;;;;;;1.40;1.30;;;-2.90;97.30;;;;;;4989082;28;20292;-68
2024/01/19 08:39:30;;;;;;;1.33;1.23;;;-2.80;97.30;;;;;;4989243;28;20420;-68
2024/01/19 08:41:56;;;;;;;2.03;1.77;;;-2.70;97.30;;;;;;5030858;23;20260;-72
2024/01/19 08:44:22;;;;;;;2.03;1.53;;;-2.70;97.30;;;;;;5043096;28;20180;-72
2024/01/19 08:46:48;;;;;;;1.43;1.33;;;-2.60;97.30;;;;;;5041411;28;20286;-72
2024/01/19 08:49:14;;;;;;;1.60;1.27;;;-2.50;97.30;;;;;;5044594;28;20889;-72
2024/01/19 08:51:40;;;;;;;2.57;2.37;;;-2.50;97.30;;;;;;5023595;28;20201;-73
2024/01/19 08:54:06;;;;;;;3.03;1.73;;;-2.50;97.30;;;;;;5024426;28;20458;-72
2024/01/19 08:56:32;;;;;;;4.70;2.17;;;-2.40;97.30;;;;;;5037594;28;20494;-73
2024/01/19 08:58:58;;;;;;;1.27;1.17;;;-2.40;97.30;;;;;;5029967;28;20679;-73
2024/01/19 09:01:24;;;;;;;2.10;1.40;;;-2.30;97.30;;;;;;5031627;28;20539;-74
2024/01/19 09:03:49;;;;;;;1.10;1.00;;;-2.20;97.30;;;;;;5035344;28;20512;-77
2024/01/19 09:06:16;;;;;;;1.50;1.40;;;-2.20;97.30;;;;;;5012404;28;20477;-75
2024/01/19 09:08:42;;;;;;;1.20;1.10;;;-2.20;97.30;;;;;;5036378;28;20431;-75
2024/01/19 09:11:09;;;;;;;1.13;1.03;;;-2.20;97.30;;;;;;5032227;28;20496;-76
2024/01/19 09:13:34;;;;;;;1.00;0.90;;;-2.30;97.30;;;;;;5025948;28;20475;-78
2024/01/19 09:16:00;;;;;;;5.80;1.60;;;-2.40;97.30;;;;;;5029304;28;21208;-76
2024/01/19 09:18:25;;;;;;;2.30;2.10;;;-2.50;97.30;;;;;;5011409;28;20187;-76
2024/01/19 09:20:51;;;;;;;2.77;1.87;;;-2.50;97.30;;;;;;5013111;28;20196;-75
2024/01/19 09:23:16;;;;;;;1.13;1.03;;;-2.60;97.30;;;;;;5025893;28;20658;-71
2024/01/19 09:25:42;;;;;;;6.53;2.20;;;-2.50;97.30;;;;;;5015097;28;20192;-75
2024/01/19 09:28:08;;;;;;;2.10;1.43;;;-2.40;97.30;;;;;;5022135;28;20185;-73
2024/01/19 09:30:34;;;;;;;3.37;1.70;;;-2.30;97.30;;;;;;5020919;28;20201;-78
2024/01/19 09:32:59;;;;;;;2.07;1.93;;;-2.30;97.30;;;;;;5034885;28;20692;-75
2024/01/19 09:35:25;;;;;;;1.27;1.17;;;-2.30;97.30;;;;;;5020097;28;20262;-75
2024/01/19 09:37:51;;;;;;;1.77;1.67;;;-2.30;97.30;;;;;;5038804;28;20275;-75
2024/01/19 09:40:19;;;;;;;1.23;1.20;;;-2.20;97.30;;;;;;5038816;28;20180;-76
2024/01/19 09:42:47;;;;;;;2.80;1.33;;;-2.20;97.30;;;;;;5039057;28;20222;-79
2024/01/19 09:45:17;;;;;;;5.43;1.67;;;-2.20;97.30;;;;;;5029788;28;20424;-78
2024/01/19 09:48:03;;;;;;;3.93;1.97;;;-2.10;97.30;;;;;;5038927;28;20463;-77
2024/01/19 09:50:36;;;;;;;1.50;1.40;;;-2.10;97.30;;;;;;5013494;28;20446;-79
2024/01/19 09:53:14;;;;;;;3.63;1.47;;;-2.00;97.30;;;;;;5021449;28;20443;-80
2024/01/19 09:55:39;;;;;;;2.40;1.37;;;-2.00;97.30;;;;;;5012795;28;20467;-75
2024/01/19 09:58:06;;;;;;;1.50;1.40;;;-2.00;97.30;;;;;;5038368;28;20840;-74
2024/01/19 10:00:31;;;;;;;1.10;1.00;;;-1.90;97.30;;;;;;5029649;28;20192;-75
2024/01/19 10:02:59;;;;;;;3.03;2.83;;;-1.90;97.30;;;;;;5037479;28;20418;-78
2024/01/19 10:05:25;;;;;;;1.80;1.70;;;-1.80;97.30;;;;;;5037689;28;20184;-79
2024/01/19 10:07:55;;;;;;;2.70;2.50;;;-1.70;97.30;;;;;;5027889;28;20459;-81
2024/01/19 10:10:20;;;;;;;1.67;1.57;;;-1.70;97.30;;;;;;5036234;28;20176;-81
2024/01/19 10:12:46;;;;;;;1.23;1.13;;;-1.60;97.30;;;;;;5022031;28;20422;-74
2024/01/19 10:15:14;;;;;;;1.40;1.30;;;-1.60;97.30;;;;;;5023213;28;20269;-86
2024/01/19 10:17:41;;;;;;;2.80;1.67;;;-1.50;97.30;;;;;;5032552;28;20433;-84
2024/01/19 10:20:10;;;;;;;2.00;1.67;;;-1.40;97.30;;;;;;5033090;28;20458;-85
2024/01/19 10:22:36;;;;;;;2.10;1.97;;;-1.30;97.30;;;;;;5033674;28;20413;-81
2024/01/19 10:25:10;;;;;;;1.50;1.40;;;-1.20;97.30;;;;;;5023804;28;20411;-87
2024/01/19 10:27:40;;;;;;;3.30;2.63;;;-1.20;97.30;;;;;;5028017;28;20264;-84
2024/01/19 10:30:10;;;;;;;3.43;1.70;;;-1.10;97.30;;;;;;5033141;28;20418;-87
2024/01/19 10:32:44;;;;;;;2.00;1.33;;;-1.00;97.30;;;;;;5014578;28;20419;-85
2024/01/19 10:35:20;;;;;;;6.20;2.60;;;-1.00;97.30;;;;;;5036488;28;20517;-81
2024/01/19 10:37:47;;;;;;;2.47;2.30;;;-0.90;97.30;;;;;;5031256;28;21041;-85
2024/01/19 10:40:26;;;;;;;2.63;2.00;;;-0.80;97.30;;;;;;5033489;28;20501;-82
2024/01/19 10:42:56;;;;;;;5.03;2.10;;;-0.80;97.30;;;;;;5017583;28;20474;-77
2024/01/19 10:45:28;;;;;;;1.87;1.77;;;-0.80;97.30;;;;;;5035654;28;21019;-81
2024/01/19 10:47:58;;;;;;;5.03;1.60;;;-0.80;97.30;;;;;;5030195;28;20764;-78
2024/01/19 10:50:28;;;;;;;6.03;2.60;;;-0.60;97.30;;;;;;5033211;28;20439;-80
2024/01/19 10:52:59;;;;;;;7.30;3.37;;;-0.60;97.30;;;;;;5026459;28;20431;-79
2024/01/19 10:55:26;;;;;;;1.73;1.63;;;-0.40;97.30;;;;;;5015576;28;20474;-78
2024/01/19 10:57:55;;;;;;;1.80;1.70;;;-0.40;97.30;;;;;;5009928;28;20611;-83
2024/01/19 11:00:22;;;;;;;1.97;1.83;;;-0.40;97.30;;;;;;5011974;28;20503;-78
2024/01/19 11:02:54;;;;;;;3.13;2.93;;;-0.30;97.30;;;;;;5010929;28;20549;-74
2024/01/19 11:05:20;;;;;;;9.50;2.53;;;-0.20;97.30;;;;;;5013349;28;20511;-81
2024/01/19 11:07:47;;;;;;;2.70;2.40;;;-0.20;97.30;;;;;;5005671;28;21007;-82
2024/01/19 11:10:13;;;;;;;3.27;2.13;;;-0.10;97.30;;;;;;5028389;28;20427;-81
2024/01/19 11:12:47;;;;;;;3.90;2.33;;;0.00;97.30;;;;;;5018866;28;20414;-79
2024/01/19 11:15:19;;;;;;;2.60;2.40;;;0.10;97.30;;;;;;5024418;28;20199;-82
2024/01/19 11:17:46;;;;;;;1.97;1.87;;;0.00;97.30;;;;;;5019241;28;20502;-85
2024/01/19 11:20:12;;;;;;;6.60;2.40;;;0.00;97.30;;;;;;5010096;28;20432;-76
2024/01/19 11:22:38;;;;;;;2.90;2.70;;;0.00;97.30;;;;;;5003930;28;20422;-81
2024/01/19 11:25:09;;;;;;;5.07;3.43;;;0.20;97.30;;;;;;5018076;28;20180;-87
2024/01/19 11:27:44;;;;;;;1.43;1.33;;;0.40;97.30;;;;;;5011111;28;20420;-85
2024/01/19 11:30:37;;;;;;;9.53;3.10;;;0.40;97.30;;;;;;5007513;28;20531;-82
2024/01/19 11:33:19;;;;;;;1.83;1.73;;;0.30;97.30;;;;;;5028804;28;20453;-81
2024/01/19 11:35:50;;;;;;;1.33;1.23;;;0.50;97.30;;;;;;5019257;28;20545;-82
2024/01/19 11:38:38;;;;;;;2.40;2.20;;;0.60;97.30;;;;;;5017481;28;21023;-81
2024/01/19 11:41:04;;;;;;;4.30;3.20;;;0.80;97.30;;;;;;5009024;28;20591;-81
2024/01/19 11:43:42;;;;;;;4.70;2.47;;;0.80;97.30;;;;;;5009126;28;20577;-85
2024/01/19 11:46:09;;;;;;;1.80;1.70;;;1.00;97.30;;;;;;5023033;28;20423;-83
2024/01/19 11:48:42;;;;;;;3.53;1.63;;;1.00;97.30;;;;;;5025492;28;20506;-83
2024/01/19 11:51:28;;;;;;;4.10;2.83;;;1.20;97.30;;;;;;5019025;28;20458;-83
2024/01/19 11:53:58;;;;;;;2.07;1.93;;;1.30;97.30;;;;;;5019218;28;20503;-87
2024/01/19 11:56:25;;;;;;;2.20;1.23;;;1.50;97.30;;;;;;5011057;28;20464;-86
2024/01/19 11:58:51;;;;;;;2.90;2.70;;;1.60;97.30;;;;;;5022685;28;20508;-86
2024/01/19 12:01:17;;;;;;;2.10;1.60;;;1.40;97.30;;;;;;5013110;28;21025;-82
2024/01/19 12:03:43;;;;;;;1.37;1.33;;;1.30;97.30;;;;;;5023443;28;20420;-88
2024/01/19 12:06:08;;;;;;;2.30;1.40;;;1.10;97.30;;;;;;5023585;28;20446;-81
2024/01/19 12:08:35;;;;;;;1.70;1.60;;;1.20;97.30;;;;;;5007370;28;20443;-83
2024/01/19 12:11:02;;;;;;;3.97;3.00;;;1.10;97.30;;;;;;5022888;28;20799;-82
2024/01/19 12:13:32;;;;;;;1.70;1.60;;;1.40;97.30;;;;;;5023324;28;20364;-85
2024/01/19 12:15:58;;;;;;;1.77;1.67;;;1.30;97.30;;;;;;5019336;28;20465;-82
2024/01/19 12:18:25;;;;;;;7.83;3.23;;;1.40;97.30;;;;;;5020083;28;20418;-84
2024/01/19 12:20:55;;;;;;;1.30;1.20;;;1.40;97.30;;;;;;5017984;28;20526;-83
2024/01/19 12:23:21;;;;;;;2.23;2.07;;;1.50;97.30;;;;;;5017184;28;20461;-84
2024/01/19 12:25:47;;;;;;;1.97;1.87;;;1.60;97.30;;;;;;5018194;28;20424;-81
2024/01/19 12:28:15;;;;;;;1.77;1.67;;;1.60;97.30;;;;;;5031403;28;20423;-82
2024/01/19 12:30:40;;;;;;;2.67;2.47;;;1.40;97.30;;;;;;5026706;28;20200;-84
2024/01/19 12:33:18;;;;;;;3.90;2.23;;;1.40;97.30;;;;;;5040810;28;20422;-79
2024/01/19 12:35:45;;;;;;;8.93;1.93;;;1.40;97.30;;;;;;5023208;28;20342;-79
2024/01/19 12:38:12;;;;;;;5.97;2.77;;;1.30;97.30;;;;;;5029692;28;20415;-79
2024/01/19 12:40:40;;;;;;;2.30;2.03;;;1.40;97.30;;;;;;5021704;28;20817;-78
2024/01/19 12:43:06;;;;;;;3.80;1.90;;;1.50;97.30;;;;;;5036414;28;20433;-78
2024/01/19 12:45:32;;;;;;;4.33;4.07;;;1.30;97.30;;;;;;5039811;28;20941;-80
2024/01/19 12:48:01;;;;;;;2.13;1.97;;;1.30;97.30;;;;;;5033024;28;20425;-80
2024/01/19 12:50:28;;;;;;;3.70;2.60;;;1.70;97.30;;;;;;5028324;28;20790;-83
2024/01/19 12:52:53;;;;;;;3.40;2.43;;;1.80;97.30;;;;;;5051639;28;20495;-81
2024/01/19 12:55:29;;;;;;;1.60;1.50;;;1.70;97.30;;;;;;5029757;28;20446;-81
2024/01/19 12:57:55;;;;;;;1.97;1.83;;;2.00;97.30;;;;;;5032072;28;20260;-83
2024/01/19 13:00:26;;;;;;;2.20;1.33;;;2.20;97.30;;;;;;5048954;28;20426;-83
2024/01/19 13:02:53;;;;;;;3.67;2.03;;;2.00;97.30;;;;;;5035112;28;20179;-80
2024/01/19 13:05:28;;;;;;;3.47;3.27;;;2.10;97.30;;;;;;5047062;28;20410;-86
2024/01/19 13:08:12;;;;;;;1.83;1.60;;;2.20;97.30;;;;;;5046630;28;20414;-81
2024/01/19 13:10:37;;;;;;;6.13;2.80;;;2.10;97.30;;;;;;5045985;28;20811;-80
2024/01/19 13:13:07;;;;;;;3.23;3.03;;;2.10;97.30;;;;;;5032724;28;20442;-80
2024/01/19 13:15:33;;;;;;;2.60;2.30;;;2.10;97.30;;;;;;5036719;28;20223;-77
2024/01/19 13:18:10;;;;;;;3.43;2.30;;;2.10;97.30;;;;;;5059732;28;20425;-80
2024/01/19 13:20:35;;;;;;;1.13;1.03;;;2.20;97.30;;;;;;5043491;28;20470;-78
2024/01/19 13:23:01;;;;;;;3.27;1.73;;;2.20;97.30;;;;;;5029426;28;20452;-81
2024/01/19 13:25:27;;;;;;;6.57;4.17;;;2.10;97.30;;;;;;5022567;28;20630;-82
2024/01/19 13:27:52;;;;;;;1.93;1.83;;;2.00;97.30;;;;;;5047452;28;20255;-85
2024/01/19 13:30:18;;;;;;;2.13;1.97;;;2.00;97.30;;;;;;5025237;28;20628;-78
2024/01/19 13:32:43;;;;;;;1.30;1.20;;;2.10;97.30;;;;;;5041802;28;20175;-85
2024/01/19 13:35:10;;;;;;;6.80;4.47;;;2.10;97.30;;;;;;5037034;28;20270;-87
2024/01/19 13:37:36;;;;;;;6.20;3.47;;;2.00;97.30;;;;;;5022284;28;20302;-88
2024/01/19 13:40:04;;;;;;;1.93;1.70;;;2.10;97.30;;;;;;5042793;28;20510;-85
2024/01/19 13:42:34;;;;;;;2.60;2.40;;;2.20;97.30;;;;;;5030877;28;20246;-83
2024/01/19 13:45:02;;;;;;;3.00;2.77;;;2.10;97.30;;;;;;5038199;28;20469;-85
2024/01/19 13:47:27;;;;;;;1.47;1.37;;;2.20;97.30;;;;;;5034698;28;20430;-87
2024/01/19 13:49:53;;;;;;;1.47;1.37;;;2.50;97.30;;;;;;5017757;28;20419;-85
2024/01/19 13:52:20;;;;;;;1.83;1.73;;;2.50;97.30;;;;;;5018741;28;20291;-84
2024/01/19 13:54:45;;;;;;;3.13;2.93;;;2.80;97.30;;;;;;5027575;28;20263;-87
2024/01/19 13:57:11;;;;;;;1.60;1.50;;;2.70;97.30;;;;;;5022300;28;20558;-85
2024/01/19 13:59:36;;;;;;;2.60;2.40;;;2.50;97.30;;;;;;5025226;28;20532;-86
2024/01/19 14:02:02;;;;;;;2.07;1.83;;;2.30;97.30;;;;;;5041229;28;20258;-87
2024/01/19 14:04:30;;;;;;;9.57;2.93;;;2.40;97.30;;;;;;5026056;28;20187;-86
2024/01/19 14:06:56;;;;;;;4.53;2.83;;;2.60;97.30;;;;;;5046625;28;20236;-85
2024/01/19 14:09:21;;;;;;;1.37;1.27;;;2.40;97.30;;;;;;5042109;28;20451;-82
2024/01/19 14:11:48;;;;;;;1.83;1.73;;;2.30;97.30;;;;;;5039514;28;20214;-88
2024/01/19 14:14:14;;;;;;;4.73;3.00;;;2.20;97.30;;;;;;5038889;28;20191;-89
2024/01/19 14:16:39;;;;;;;2.90;2.70;;;2.00;97.30;;;;;;5036490;28;20451;-81
2024/01/19 14:19:06;;;;;;;7.40;3.63;;;2.10;97.30;;;;;;5024775;28;20657;-81
2024/01/19 14:21:32;;;;;;;6.20;2.30;;;1.90;97.30;;;;;;5035331;28;20326;-78
2024/01/19 14:23:57;;;;;;;3.90;2.73;;;1.90;97.30;;;;;;5028186;28;20525;-83
2024/01/19 14:26:23;;;;;;;12.23;5.70;;;1.80;97.30;;;;;;5027286;28;20531;-85
2024/01/19 14:28:49;;;;;;;1.70;1.60;;;1.70;97.30;;;;;;5032227;28;20183;-83
2024/01/19 14:31:15;;;;;;;2.73;2.53;;;1.70;97.30;;;;;;5024516;28;20694;-82
2024/01/19 14:33:42;;;;;;;1.70;1.60;;;1.70;97.30;;;;;;5037049;28;20533;-82
2024/01/19 14:36:08;;;;;;;1.60;1.50;;;1.60;97.30;;;;;;5031831;28;20207;-85
2024/01/19 14:38:33;;;;;;;2.00;1.90;;;1.60;97.30;;;;;;5055593;28;20483;-84
2024/01/19 14:40:59;;;;;;;1.23;1.13;;;1.50;97.30;;;;;;5040381;28;20227;-84
2024/01/19 14:43:24;;;;;;;2.63;2.43;;;1.20;97.30;;;;;;5025415;28;20194;-84
2024/01/19 14:45:50;;;;;;;4.23;4.00;;;1.00;97.30;;;;;;5025236;28;20187;-84
2024/01/19 14:48:16;;;;;;;5.87;2.00;;;0.90;97.30;;;;;;5028568;28;20206;-84
2024/01/19 14:50:42;;;;;;;2.63;2.47;;;0.80;97.30;;;;;;5029829;28;20262;-88
2024/01/19 14:53:08;;;;;;;7.87;2.37;;;0.70;97.30;;;;;;5037106;28;20430;-87
2024/01/19 14:55:34;;;;;;;3.83;3.13;;;0.50;97.30;;;;;;5026520;28;20195;-84
2024/01/19 14:58:00;;;;;;;4.10;3.87;;;0.50;97.30;;;;;;5035041;28;20259;-85
2024/01/19 15:00:26;;;;;;;15.80;9.50;;;0.50;97.30;;;;;;5033408;28;20191;-88
2024/01/19 15:02:52;;;;;;;3.93;3.73;;;0.50;97.30;;;;;;5041362;28;20434;-87
2024/01/19 15:05:18;;;;;;;4.30;2.07;;;0.30;97.30;;;;;;5025309;28;20423;-85
2024/01/19 15:07:43;;;;;;;3.20;2.30;;;0.20;97.30;;;;;;5032163;28;20803;-86
2024/01/19 15:10:09;;;;;;;1.93;1.80;;;0.00;97.30;;;;;;5023377;28;20183;-81
2024/01/19 15:12:35;;;;;;;7.80;3.20;;;0.00;97.30;;;;;;5024338;28;20699;-89
2024/01/19 15:15:02;;;;;;;2.80;2.60;;;-0.10;97.30;;;;;;5047809;28;20413;-85
2024/01/19 15:17:28;;;;;;;5.77;1.63;;;-0.20;97.30;;;;;;5038988;28;20470;-84
2024/01/19 15:19:56;;;;;;;2.70;2.50;;;-0.20;97.30;;;;;;5023559;28;20477;-86
2024/01/19 15:22:22;;;;;;;2.20;1.93;;;-0.30;97.30;;;;;;5020248;28;20200;-84
2024/01/19 15:24:48;;;;;;;5.43;2.10;;;0.20;97.30;;;;;;5042792;28;20419;-82
2024/01/19 15:27:14;;;;;;;1.20;1.10;;;-0.10;97.30;;;;;;5029049;28;20465;-80
2024/01/19 15:29:40;;;;;;;1.40;1.30;;;-0.30;97.30;;;;;;5038501;28;20455;-82
2024/01/19 15:32:05;;;;;;;1.40;1.30;;;-0.40;97.30;;;;;;5015628;28;20211;-79
2024/01/19 15:34:31;;;;;;;1.20;1.10;;;-0.50;97.30;;;;;;5021931;28;20687;-78
2024/01/19 15:36:56;;;;;;;3.30;1.90;;;-0.60;97.30;;;;;;5030001;28;20275;-79
2024/01/19 15:39:22;;;;;;;1.20;1.10;;;-0.60;97.30;;;;;;5017173;28;20184;-82
2024/01/19 15:41:49;;;;;;;1.30;1.20;;;-0.60;97.30;;;;;;5007665;28;20355;-79
2024/01/19 15:44:14;;;;;;;1.37;1.27;;;-0.70;97.30;;;;;;5009906;28;20665;-82
2024/01/19 15:46:40;;;;;;;6.53;1.40;;;-0.70;97.30;;;;;;5021791;28;20457;-81
2024/01/19 15:49:05;;;;;;;4.17;3.70;;;-0.70;97.30;;;;;;5034328;28;20187;-74
2024/01/19 15:51:32;;;;;;;6.63;4.17;;;-0.70;97.30;;;;;;5034301;28;20208;-82
2024/01/19 15:53:58;;;;;;;1.53;1.43;;;-0.70;97.30;;;;;;5017764;28;20173;-79
2024/01/19 15:56:25;;;;;;;4.00;2.20;;;-0.70;97.30;;;;;;5021184;28;20559;-77
2024/01/19 15:58:52;;;;;;;8.93;2.17;;;-0.80;97.30;;;;;;5018313;28;20419;-79
2024/01/19 16:01:18;;;;;;;2.90;1.60;;;-0.80;97.30;;;;;;5018395;28;20454;-78
2024/01/19 16:03:46;;;;;;;3.43;3.23;;;-0.80;97.30;;;;;;5021328;28;20509;-80
2024/01/19 16:06:12;;;;;;;1.33;1.23;;;-0.90;97.30;;;;;;5027988;28;20446;-76
2024/01/19 16:08:38;;;;;;;2.93;2.73;;;-0.90;97.30;;;;;;5036586;28;20435;-76
2024/01/19 16:11:09;;;;;;;1.53;1.43;;;-0.90;97.30;;;;;;5012964;28;20461;-77
2024/01/19 16:13:35;;;;;;;3.63;2.80;;;-0.90;97.30;;;;;;5036580;28;20183;-77
2024/01/19 16:16:07;;;;;;;1.37;1.27;;;-0.90;97.30;;;;;;5041952;28;20452;-83
2024/01/19 16:18:42;;;;;;;5.90;2.53;;;-0.90;97.30;;;;;;5018146;28;20439;-81
2024/01/19 16:21:19;;;;;;;2.73;2.40;;;-1.00;97.30;;;;;;5017724;28;20481;-75
2024/01/19 16:23:45;;;;;;;6.13;3.80;;;-1.00;97.30;;;;;;5016876;28;20433;-78
2024/01/19 16:26:12;;;;;;;1.53;1.43;;;-1.00;97.30;;;;;;5014029;28;20423;-78
2024/01/19 16:28:38;;;;;;;2.37;2.20;;;-1.00;97.30;;;;;;5024383;28;20423;-79
2024/01/19 16:31:04;;;;;;;0.90;0.80;;;-1.00;97.30;;;;;;5018752;28;20488;-77
2024/01/19 16:33:31;;;;;;;1.10;1.00;;;-1.00;97.30;;;;;;5017476;28;20254;-78
2024/01/19 16:35:56;;;;;;;1.40;1.30;;;-1.00;97.30;;;;;;5037893;28;20497;-85
2024/01/19 16:38:28;;;;;;;3.40;1.73;;;-1.10;97.30;;;;;;5042519;28;20434;-78
2024/01/19 16:40:56;;;;;;;1.53;1.43;;;-1.00;97.30;;;;;;5015566;28;20451;-79
2024/01/19 16:43:25;;;;;;;1.50;1.40;;;-1.00;97.30;;;;;;5013681;28;20508;-84
2024/01/19 16:45:51;;;;;;;1.13;1.03;;;-1.00;97.30;;;;;;5035016;28;20504;-76
2024/01/19 16:48:17;;;;;;;2.60;2.40;;;-1.00;97.30;;;;;;5037715;28;20504;-80
2024/01/19 16:50:43;;;;;;;1.40;1.30;;;-1.00;97.30;;;;;;5014648;28;20200;-75
2024/01/19 16:53:09;;;;;;;1.30;1.20;;;-1.00;97.30;;;;;;5040341;28;20175;-77
2024/01/19 16:55:35;;;;;;;1.10;1.00;;;-1.00;97.30;;;;;;5039797;28;20469;-81
2024/01/19 16:58:00;;;;;;;1.43;1.33;;;-1.00;97.30;;;;;;5023257;28;20426;-79
2024/01/19 17:00:26;;;;;;;2.03;1.63;;;-1.00;97.30;;;;;;5020843;28;20228;-76
2024/01/19 17:02:52;;;;;;;1.67;1.57;;;-1.00;97.30;;;;;;5044321;28;20212;-77
2024/01/19 17:05:18;;;;;;;1.57;1.47;;;-1.00;97.30;;;;;;5035952;28;20194;-84
2024/01/19 17:07:44;;;;;;;1.30;1.20;;;-1.10;97.30;;;;;;5026492;28;20248;-78
2024/01/19 17:10:10;;;;;;;2.00;1.87;;;-1.00;97.30;;;;;;5029454;28;20423;-80
2024/01/19 17:12:36;;;;;;;1.70;1.60;;;-1.10;97.30;;;;;;5030240;28;20526;-75
2024/01/19 17:15:02;;;;;;;0.97;0.87;;;-1.00;97.30;;;;;;5041022;28;20883;-77
2024/01/19 17:17:27;;;;;;;2.27;1.30;;;-1.10;97.30;;;;;;5043392;28;20461;-76
2024/01/19 17:19:53;;;;;;;4.60;1.60;;;-1.10;97.30;;;;;;5026354;28;20426;-78
2024/01/19 17:22:21;;;;;;;1.50;1.40;;;-1.10;97.30;;;;;;5030837;28;20333;-76
2024/01/19 17:24:46;;;;;;;1.30;1.20;;;-1.20;97.30;;;;;;5045771;28;20230;-79
2024/01/19 17:27:12;;;;;;;2.03;1.90;;;-1.20;97.30;;;;;;5049187;28;20749;-76
2024/01/19 17:29:37;;;;;;;1.00;0.90;;;-1.10;97.30;;;;;;5028562;28;20652;-76
2024/01/19 17:32:03;;;;;;;1.00;0.90;;;-1.20;97.30;;;;;;5051706;28;20206;-77
2024/01/19 17:34:28;;;;;;;1.40;1.30;;;-1.20;97.30;;;;;;5030086;28;20325;-77
2024/01/19 17:36:54;;;;;;;4.73;1.93;;;-1.10;97.30;;;;;;5030281;28;20207;-78
2024/01/19 17:39:19;;;;;;;1.77;1.67;;;-1.20;97.30;;;;;;5048579;28;20179;-76
2024/01/19 17:41:45;;;;;;;4.80;2.57;;;-1.20;97.30;;;;;;5048349;28;20293;-76
2024/01/19 17:44:10;;;;;;;3.37;2.43;;;-1.20;97.30;;;;;;5049117;28;20258;-76
2024/01/19 17:46:36;;;;;;;3.77;1.70;;;-1.20;97.30;;;;;;5048198;28;20180;-76
2024/01/19 17:49:01;;;;;;;2.03;1.90;;;-1.20;97.30;;;;;;5030860;28;20190;-77
2024/01/19 17:51:27;;;;;;;1.03;0.93;;;-1.20;97.30;;;;;;5029147;28;20212;-75